Terminal Aerodrome Forecast
Issued by NWS

Home | Current Version | Previous Version | Text Only | Print | Product List | Glossary On
Versions: 1 2 3 4 5 6 7 8 9 10 11 12 13
393
FTUS44 KTSA 111120
TAFBVO
TAF
KBVO 111120Z 1112/1212 18014G23KT P6SM OVC025
      TEMPO 1112/1115 BKN015
     FM111800 22009G17KT P6SM BKN025
     FM112100 32008G18KT P6SM SCT035 BKN250
     FM120100 35012KT P6SM BKN250=

USA.gov is the U.S. government's official web portal to all federal, state and local government web resources and services.